Pagrindinis puslapis
METAR-TAF:

METAR-TAF

Oro uostai :

Tarptautinis Federico Fellini oro uostas

Riminis, Italija

platuma: 44-02N, ilguma: 012-37E, Aukštis: 12 m

Dabartinis oras

Ataskaita buvo paskelbta 27 minutes, ne 03:50 UTC
Vėjas 4 kt iš Rytų/Pietryčių, svyruoja nuo Rytų ir Pietryčių
Temperatūra 10°C
Drėgmė 71%
Slėgis 1020 hPa
Matomumas 10 km arba daugiau

METAR: LIPR 180350Z AUTO 12004KT 080V140 9999 BKN061/// 10/05 Q1020

Laikas: 05:17 (04:17 UTC)

Prognozė

Ataskaita buvo paskelbta 2 valandos ir 17 minutes, ne 02:00 UTC
Prognozė galioja nuo 18 metu 03 UTC su 18 metu 12 UTC
Vėjas 5 kt nuo kintamojo kryptimis
Matomumas 10 km arba daugiau
Išsisklaidę debesys ne aukštis 4000 ft
Laikinai
nuo 18 metu 03 UTC su 18 metu 12 UTC
Matomumas: 3000 m
lietus
Tapsmas
nuo 18 metu 10 UTC su 18 metu 12 UTC
Vėjas 10 kt iš Vakarų/Šiaurės Vakarų

TAF: LIPR 180200Z 1803/1812 VRB05KT 9999 SCT040 TEMPO 1803/1812 3000 RA BECMG 1810/1812 30010KT

Orai ataskaitas ir orų prognozės (METAR, TAF).

turimą stotys yra geltonos ir raudonos taškus žemėlapyje.

Perkelti pele per norėdami pamatyti stoties vardą.

Tada spustelėkite, norėdami matyti oro stebėjimo ir prognozės.

Norėdami pakeisti žemėlapį: spustelėkite ant žalios mygtukų su juodo kryžiaus žemyn,; žalią mygtuką su brūkšneliu, jei norite nutolinti; arba žalių rodyklių gretimoms žemėlapius.


METAR-TAF: